sensor_id;sensor_type;location;lat;lon;timestamp;temperature;humidity
47861;HTU21D;33620;52.340;5.984;2023-07-30T00:02:17;17.68;74.55
47861;HTU21D;33620;52.340;5.984;2023-07-30T00:04:46;17.66;74.64
47861;HTU21D;33620;52.340;5.984;2023-07-30T00:07:12;17.64;75.05
47861;HTU21D;33620;52.340;5.984;2023-07-30T00:09:38;17.61;74.50
47861;HTU21D;33620;52.340;5.984;2023-07-30T00:12:07;17.58;74.43
47861;HTU21D;33620;52.340;5.984;2023-07-30T00:14:33;17.53;74.67
47861;HTU21D;33620;52.340;5.984;2023-07-30T00:16:59;17.52;74.60
47861;HTU21D;33620;52.340;5.984;2023-07-30T00:19:24;17.47;74.51
47861;HTU21D;33620;52.340;5.984;2023-07-30T00:21:50;17.43;74.55
47861;HTU21D;33620;52.340;5.984;2023-07-30T00:24:15;17.36;75.12
47861;HTU21D;33620;52.340;5.984;2023-07-30T00:26:40;17.35;74.99
47861;HTU21D;33620;52.340;5.984;2023-07-30T00:29:06;17.39;74.97
47861;HTU21D;33620;52.340;5.984;2023-07-30T00:31:31;17.32;75.14
47861;HTU21D;33620;52.340;5.984;2023-07-30T00:33:57;17.29;74.82
47861;HTU21D;33620;52.340;5.984;2023-07-30T00:36:22;17.29;74.83
47861;HTU21D;33620;52.340;5.984;2023-07-30T00:38:47;17.30;74.76
47861;HTU21D;33620;52.340;5.984;2023-07-30T00:41:13;17.28;74.59
47861;HTU21D;33620;52.340;5.984;2023-07-30T00:43:38;17.26;74.89
47861;HTU21D;33620;52.340;5.984;2023-07-30T00:46:04;17.25;74.73
47861;HTU21D;33620;52.340;5.984;2023-07-30T00:48:29;17.25;74.64
47861;HTU21D;33620;52.340;5.984;2023-07-30T00:50:55;17.24;74.89
47861;HTU21D;33620;52.340;5.984;2023-07-30T00:53:22;17.25;74.79
47861;HTU21D;33620;52.340;5.984;2023-07-30T00:55:49;17.23;74.81
47861;HTU21D;33620;52.340;5.984;2023-07-30T00:58:15;17.23;74.81
47861;HTU21D;33620;52.340;5.984;2023-07-30T01:00:40;17.26;74.82
47861;HTU21D;33620;52.340;5.984;2023-07-30T01:03:06;17.23;74.55
47861;HTU21D;33620;52.340;5.984;2023-07-30T01:05:31;17.23;74.99
47861;HTU21D;33620;52.340;5.984;2023-07-30T01:07:57;17.21;74.98
47861;HTU21D;33620;52.340;5.984;2023-07-30T01:10:22;17.18;75.15
47861;HTU21D;33620;52.340;5.984;2023-07-30T01:12:48;17.19;75.14
47861;HTU21D;33620;52.340;5.984;2023-07-30T01:15:14;17.19;75.21
47861;HTU21D;33620;52.340;5.984;2023-07-30T01:17:40;17.15;75.58
47861;HTU21D;33620;52.340;5.984;2023-07-30T01:20:06;17.17;75.73
47861;HTU21D;33620;52.340;5.984;2023-07-30T01:22:31;17.08;75.92
47861;HTU21D;33620;52.340;5.984;2023-07-30T01:24:56;17.08;76.23
47861;HTU21D;33620;52.340;5.984;2023-07-30T01:27:29;17.08;76.33
47861;HTU21D;33620;52.340;5.984;2023-07-30T01:30:05;17.07;76.52
47861;HTU21D;33620;52.340;5.984;2023-07-30T01:32:32;17.05;76.56
47861;HTU21D;33620;52.340;5.984;2023-07-30T01:35:00;17.02;77.08
47861;HTU21D;33620;52.340;5.984;2023-07-30T01:37:26;17.01;77.01
47861;HTU21D;33620;52.340;5.984;2023-07-30T01:39:53;17.00;77.22
47861;HTU21D;33620;52.340;5.984;2023-07-30T01:42:18;16.99;77.53
47861;HTU21D;33620;52.340;5.984;2023-07-30T01:44:44;16.94;77.70
47861;HTU21D;33620;52.340;5.984;2023-07-30T01:47:09;16.95;77.98
47861;HTU21D;33620;52.340;5.984;2023-07-30T01:49:35;16.96;77.83
47861;HTU21D;33620;52.340;5.984;2023-07-30T01:52:00;16.90;78.24
47861;HTU21D;33620;52.340;5.984;2023-07-30T01:54:26;16.88;78.35
47861;HTU21D;33620;52.340;5.984;2023-07-30T01:56:52;16.88;78.51
47861;HTU21D;33620;52.340;5.984;2023-07-30T01:59:18;16.84;78.71
47861;HTU21D;33620;52.340;5.984;2023-07-30T02:01:43;16.85;78.89
47861;HTU21D;33620;52.340;5.984;2023-07-30T02:04:09;16.78;79.31
47861;HTU21D;33620;52.340;5.984;2023-07-30T02:06:34;16.76;79.66
47861;HTU21D;33620;52.340;5.984;2023-07-30T02:08:59;16.73;79.69
47861;HTU21D;33620;52.340;5.984;2023-07-30T02:11:25;16.63;80.24
47861;HTU21D;33620;52.340;5.984;2023-07-30T02:13:50;16.63;80.45
47861;HTU21D;33620;52.340;5.984;2023-07-30T02:16:15;16.65;80.45
47861;HTU21D;33620;52.340;5.984;2023-07-30T02:18:41;16.69;80.27
47861;HTU21D;33620;52.340;5.984;2023-07-30T02:21:06;16.65;80.40
47861;HTU21D;33620;52.340;5.984;2023-07-30T02:23:32;16.60;80.65
47861;HTU21D;33620;52.340;5.984;2023-07-30T02:25:57;16.61;80.75
47861;HTU21D;33620;52.340;5.984;2023-07-30T02:28:22;16.59;81.05
47861;HTU21D;33620;52.340;5.984;2023-07-30T02:30:48;16.54;81.39
47861;HTU21D;33620;52.340;5.984;2023-07-30T02:33:13;16.52;81.58
47861;HTU21D;33620;52.340;5.984;2023-07-30T02:35:39;16.49;81.79
47861;HTU21D;33620;52.340;5.984;2023-07-30T02:38:04;16.51;81.71
47861;HTU21D;33620;52.340;5.984;2023-07-30T02:40:30;16.50;81.74
47861;HTU21D;33620;52.340;5.984;2023-07-30T02:42:56;16.50;82.03
47861;HTU21D;33620;52.340;5.984;2023-07-30T02:45:21;16.46;82.23
47861;HTU21D;33620;52.340;5.984;2023-07-30T02:47:46;16.46;82.38
47861;HTU21D;33620;52.340;5.984;2023-07-30T02:50:12;16.49;82.31
47861;HTU21D;33620;52.340;5.984;2023-07-30T02:52:37;16.46;82.53
47861;HTU21D;33620;52.340;5.984;2023-07-30T02:55:03;16.43;82.89
47861;HTU21D;33620;52.340;5.984;2023-07-30T02:57:28;16.50;82.84
47861;HTU21D;33620;52.340;5.984;2023-07-30T02:59:53;16.59;82.64
47861;HTU21D;33620;52.340;5.984;2023-07-30T03:02:19;16.59;82.42
47861;HTU21D;33620;52.340;5.984;2023-07-30T03:04:44;16.60;82.33
47861;HTU21D;33620;52.340;5.984;2023-07-30T03:07:10;16.57;82.56
47861;HTU21D;33620;52.340;5.984;2023-07-30T03:09:35;16.56;82.86
47861;HTU21D;33620;52.340;5.984;2023-07-30T03:12:01;16.59;82.94
47861;HTU21D;33620;52.340;5.984;2023-07-30T03:14:26;16.62;82.70
47861;HTU21D;33620;52.340;5.984;2023-07-30T03:16:52;16.64;82.61
47861;HTU21D;33620;52.340;5.984;2023-07-30T03:19:17;16.63;82.56
47861;HTU21D;33620;52.340;5.984;2023-07-30T03:21:43;16.60;83.14
47861;HTU21D;33620;52.340;5.984;2023-07-30T03:24:08;16.58;83.11
47861;HTU21D;33620;52.340;5.984;2023-07-30T03:26:34;16.50;83.55
47861;HTU21D;33620;52.340;5.984;2023-07-30T03:28:59;16.52;83.66
47861;HTU21D;33620;52.340;5.984;2023-07-30T03:31:25;16.54;83.66
47861;HTU21D;33620;52.340;5.984;2023-07-30T03:33:50;16.46;83.94
47861;HTU21D;33620;52.340;5.984;2023-07-30T03:36:16;16.47;84.00
47861;HTU21D;33620;52.340;5.984;2023-07-30T03:38:42;16.42;84.42
47861;HTU21D;33620;52.340;5.984;2023-07-30T03:41:08;16.42;84.58
47861;HTU21D;33620;52.340;5.984;2023-07-30T03:43:34;16.41;84.69
47861;HTU21D;33620;52.340;5.984;2023-07-30T03:45:59;16.31;85.21
47861;HTU21D;33620;52.340;5.984;2023-07-30T03:48:25;16.34;85.23
47861;HTU21D;33620;52.340;5.984;2023-07-30T03:50:53;16.36;85.18
47861;HTU21D;33620;52.340;5.984;2023-07-30T03:53:18;16.31;85.40
47861;HTU21D;33620;52.340;5.984;2023-07-30T03:55:43;16.33;85.29
47861;HTU21D;33620;52.340;5.984;2023-07-30T03:58:09;16.32;85.40
47861;HTU21D;33620;52.340;5.984;2023-07-30T04:00:34;16.30;85.57
47861;HTU21D;33620;52.340;5.984;2023-07-30T04:03:00;16.25;86.06
47861;HTU21D;33620;52.340;5.984;2023-07-30T04:05:25;16.26;85.96
47861;HTU21D;33620;52.340;5.984;2023-07-30T04:07:50;16.25;86.03
47861;HTU21D;33620;52.340;5.984;2023-07-30T04:10:16;16.24;86.35
47861;HTU21D;33620;52.340;5.984;2023-07-30T04:12:41;16.19;86.51
47861;HTU21D;33620;52.340;5.984;2023-07-30T04:15:07;16.19;86.63
47861;HTU21D;33620;52.340;5.984;2023-07-30T04:17:35;16.22;86.61
47861;HTU21D;33620;52.340;5.984;2023-07-30T04:20:00;16.20;86.89
47861;HTU21D;33620;52.340;5.984;2023-07-30T04:22:25;16.20;87.10
47861;HTU21D;33620;52.340;5.984;2023-07-30T04:24:51;16.25;87.21
47861;HTU21D;33620;52.340;5.984;2023-07-30T04:27:16;16.27;87.17
47861;HTU21D;33620;52.340;5.984;2023-07-30T04:29:41;16.33;87.02
47861;HTU21D;33620;52.340;5.984;2023-07-30T04:32:07;16.31;87.25
47861;HTU21D;33620;52.340;5.984;2023-07-30T04:34:32;16.25;87.83
47861;HTU21D;33620;52.340;5.984;2023-07-30T04:36:58;16.25;87.98
47861;HTU21D;33620;52.340;5.984;2023-07-30T04:39:23;16.26;87.93
47861;HTU21D;33620;52.340;5.984;2023-07-30T04:41:48;16.27;88.12
47861;HTU21D;33620;52.340;5.984;2023-07-30T04:44:14;16.29;88.35
47861;HTU21D;33620;52.340;5.984;2023-07-30T04:46:39;16.29;88.38
47861;HTU21D;33620;52.340;5.984;2023-07-30T04:49:05;16.30;88.63
47861;HTU21D;33620;52.340;5.984;2023-07-30T04:51:30;16.35;88.68
47861;HTU21D;33620;52.340;5.984;2023-07-30T04:53:55;16.42;88.58
47861;HTU21D;33620;52.340;5.984;2023-07-30T04:56:21;16.45;88.33
47861;HTU21D;33620;52.340;5.984;2023-07-30T04:58:46;16.47;88.38
47861;HTU21D;33620;52.340;5.984;2023-07-30T05:01:12;16.50;88.36
47861;HTU21D;33620;52.340;5.984;2023-07-30T05:03:37;16.56;88.41
47861;HTU21D;33620;52.340;5.984;2023-07-30T05:06:03;16.55;88.33
47861;HTU21D;33620;52.340;5.984;2023-07-30T05:08:28;16.55;88.68
47861;HTU21D;33620;52.340;5.984;2023-07-30T05:10:53;16.59;88.67
47861;HTU21D;33620;52.340;5.984;2023-07-30T05:13:19;16.63;88.64
47861;HTU21D;33620;52.340;5.984;2023-07-30T05:15:44;16.67;88.45
47861;HTU21D;33620;52.340;5.984;2023-07-30T05:18:10;16.67;88.66
47861;HTU21D;33620;52.340;5.984;2023-07-30T05:20:35;16.74;88.77
47861;HTU21D;33620;52.340;5.984;2023-07-30T05:23:00;16.75;88.42
47861;HTU21D;33620;52.340;5.984;2023-07-30T05:25:27;16.74;88.84
47861;HTU21D;33620;52.340;5.984;2023-07-30T05:27:53;16.78;89.02
47861;HTU21D;33620;52.340;5.984;2023-07-30T05:30:18;16.85;88.89
47861;HTU21D;33620;52.340;5.984;2023-07-30T05:32:43;16.87;88.89
47861;HTU21D;33620;52.340;5.984;2023-07-30T05:35:09;16.90;88.96
47861;HTU21D;33620;52.340;5.984;2023-07-30T05:37:34;16.95;89.06
47861;HTU21D;33620;52.340;5.984;2023-07-30T05:39:59;17.00;88.79
47861;HTU21D;33620;52.340;5.984;2023-07-30T05:42:25;17.03;88.79
47861;HTU21D;33620;52.340;5.984;2023-07-30T05:44:50;17.07;88.54
47861;HTU21D;33620;52.340;5.984;2023-07-30T05:47:16;17.07;88.39
47861;HTU21D;33620;52.340;5.984;2023-07-30T05:49:41;17.08;88.73
47861;HTU21D;33620;52.340;5.984;2023-07-30T05:52:06;17.10;88.69
47861;HTU21D;33620;52.340;5.984;2023-07-30T05:54:32;17.15;88.71
47861;HTU21D;33620;52.340;5.984;2023-07-30T05:56:57;17.14;88.63
47861;HTU21D;33620;52.340;5.984;2023-07-30T05:59:22;17.19;88.61
47861;HTU21D;33620;52.340;5.984;2023-07-30T06:01:48;17.24;88.52
47861;HTU21D;33620;52.340;5.984;2023-07-30T06:04:13;17.32;88.27
47861;HTU21D;33620;52.340;5.984;2023-07-30T06:06:39;17.35;88.04
47861;HTU21D;33620;52.340;5.984;2023-07-30T06:09:04;17.33;87.90
47861;HTU21D;33620;52.340;5.984;2023-07-30T06:11:30;17.39;88.17
47861;HTU21D;33620;52.340;5.984;2023-07-30T06:13:55;17.43;88.00
47861;HTU21D;33620;52.340;5.984;2023-07-30T06:16:21;17.48;87.92
47861;HTU21D;33620;52.340;5.984;2023-07-30T06:18:46;17.52;87.70
47861;HTU21D;33620;52.340;5.984;2023-07-30T06:21:12;17.58;87.57
47861;HTU21D;33620;52.340;5.984;2023-07-30T06:23:38;17.62;87.15
47861;HTU21D;33620;52.340;5.984;2023-07-30T06:26:03;17.55;87.05
47861;HTU21D;33620;52.340;5.984;2023-07-30T06:28:28;17.62;87.12
47861;HTU21D;33620;52.340;5.984;2023-07-30T06:30:54;17.66;86.93
47861;HTU21D;33620;52.340;5.984;2023-07-30T06:33:19;17.72;87.04
47861;HTU21D;33620;52.340;5.984;2023-07-30T06:35:45;17.83;86.93
47861;HTU21D;33620;52.340;5.984;2023-07-30T06:38:10;17.90;86.53
47861;HTU21D;33620;52.340;5.984;2023-07-30T06:40:35;17.95;86.55
47861;HTU21D;33620;52.340;5.984;2023-07-30T06:43:01;17.94;85.57
47861;HTU21D;33620;52.340;5.984;2023-07-30T06:45:26;17.91;85.83
47861;HTU21D;33620;52.340;5.984;2023-07-30T06:47:52;17.93;85.92
47861;HTU21D;33620;52.340;5.984;2023-07-30T06:50:17;17.93;85.45
47861;HTU21D;33620;52.340;5.984;2023-07-30T06:52:43;17.96;84.97
47861;HTU21D;33620;52.340;5.984;2023-07-30T06:55:08;18.03;85.08
47861;HTU21D;33620;52.340;5.984;2023-07-30T06:57:33;18.03;84.66
47861;HTU21D;33620;52.340;5.984;2023-07-30T06:59:59;18.06;84.67
47861;HTU21D;33620;52.340;5.984;2023-07-30T07:02:25;18.08;84.50
47861;HTU21D;33620;52.340;5.984;2023-07-30T07:04:51;18.06;84.44
47861;HTU21D;33620;52.340;5.984;2023-07-30T07:07:16;18.10;84.64
47861;HTU21D;33620;52.340;5.984;2023-07-30T07:09:42;18.17;84.52
47861;HTU21D;33620;52.340;5.984;2023-07-30T07:12:07;18.17;83.84
47861;HTU21D;33620;52.340;5.984;2023-07-30T07:14:33;18.17;84.04
47861;HTU21D;33620;52.340;5.984;2023-07-30T07:16:58;18.15;83.97
47861;HTU21D;33620;52.340;5.984;2023-07-30T07:19:24;18.13;83.70
47861;HTU21D;33620;52.340;5.984;2023-07-30T07:21:49;18.20;84.19
47861;HTU21D;33620;52.340;5.984;2023-07-30T07:24:16;18.20;83.13
47861;HTU21D;33620;52.340;5.984;2023-07-30T07:26:41;18.18;83.26
47861;HTU21D;33620;52.340;5.984;2023-07-30T07:29:06;18.21;83.34
47861;HTU21D;33620;52.340;5.984;2023-07-30T07:31:32;18.26;83.20
47861;HTU21D;33620;52.340;5.984;2023-07-30T07:33:57;18.32;83.18
47861;HTU21D;33620;52.340;5.984;2023-07-30T07:36:23;18.29;82.91
47861;HTU21D;33620;52.340;5.984;2023-07-30T07:38:48;18.26;82.67
47861;HTU21D;33620;52.340;5.984;2023-07-30T07:41:14;18.32;83.06
47861;HTU21D;33620;52.340;5.984;2023-07-30T07:43:44;18.39;82.82
47861;HTU21D;33620;52.340;5.984;2023-07-30T07:46:09;18.49;83.04
47861;HTU21D;33620;52.340;5.984;2023-07-30T07:48:40;18.51;82.29
47861;HTU21D;33620;52.340;5.984;2023-07-30T07:51:06;18.56;82.39
47861;HTU21D;33620;52.340;5.984;2023-07-30T07:53:31;18.58;81.68
47861;HTU21D;33620;52.340;5.984;2023-07-30T07:55:56;18.66;82.04
47861;HTU21D;33620;52.340;5.984;2023-07-30T07:58:22;18.67;80.75
47861;HTU21D;33620;52.340;5.984;2023-07-30T08:00:47;18.76;80.26
47861;HTU21D;33620;52.340;5.984;2023-07-30T08:03:13;18.84;79.69
47861;HTU21D;33620;52.340;5.984;2023-07-30T08:05:38;18.98;79.98
47861;HTU21D;33620;52.340;5.984;2023-07-30T08:08:03;19.14;79.74
47861;HTU21D;33620;52.340;5.984;2023-07-30T08:10:29;19.25;77.65
47861;HTU21D;33620;52.340;5.984;2023-07-30T08:12:54;19.35;78.26
47861;HTU21D;33620;52.340;5.984;2023-07-30T08:15:20;19.31;77.29
47861;HTU21D;33620;52.340;5.984;2023-07-30T08:17:45;19.31;77.45
47861;HTU21D;33620;52.340;5.984;2023-07-30T08:20:11;19.26;76.75
47861;HTU21D;33620;52.340;5.984;2023-07-30T08:22:36;19.13;75.73
47861;HTU21D;33620;52.340;5.984;2023-07-30T08:25:02;19.13;76.23
47861;HTU21D;33620;52.340;5.984;2023-07-30T08:27:28;19.16;77.08
47861;HTU21D;33620;52.340;5.984;2023-07-30T08:29:53;19.17;77.10
47861;HTU21D;33620;52.340;5.984;2023-07-30T08:32:19;19.22;77.46
47861;HTU21D;33620;52.340;5.984;2023-07-30T08:34:44;19.21;76.78
47861;HTU21D;33620;52.340;5.984;2023-07-30T08:37:09;19.18;76.36
47861;HTU21D;33620;52.340;5.984;2023-07-30T08:39:35;19.14;76.86
47861;HTU21D;33620;52.340;5.984;2023-07-30T08:42:00;19.17;76.61
47861;HTU21D;33620;52.340;5.984;2023-07-30T08:44:26;19.03;75.85
47861;HTU21D;33620;52.340;5.984;2023-07-30T08:46:51;18.93;75.65
47861;HTU21D;33620;52.340;5.984;2023-07-30T08:49:16;18.78;76.45
47861;HTU21D;33620;52.340;5.984;2023-07-30T08:51:42;18.83;76.41
47861;HTU21D;33620;52.340;5.984;2023-07-30T08:54:10;18.80;75.47
47861;HTU21D;33620;52.340;5.984;2023-07-30T08:56:36;18.80;76.38
47861;HTU21D;33620;52.340;5.984;2023-07-30T08:59:03;18.84;77.11
47861;HTU21D;33620;52.340;5.984;2023-07-30T09:01:35;18.83;77.48
47861;HTU21D;33620;52.340;5.984;2023-07-30T09:04:02;18.67;78.74
47861;HTU21D;33620;52.340;5.984;2023-07-30T09:06:27;18.58;79.60
47861;HTU21D;33620;52.340;5.984;2023-07-30T09:08:53;18.57;79.11
47861;HTU21D;33620;52.340;5.984;2023-07-30T09:11:19;18.58;79.33
47861;HTU21D;33620;52.340;5.984;2023-07-30T09:13:45;18.62;79.11
47861;HTU21D;33620;52.340;5.984;2023-07-30T09:16:12;18.57;79.59
47861;HTU21D;33620;52.340;5.984;2023-07-30T09:18:43;18.50;79.95
47861;HTU21D;33620;52.340;5.984;2023-07-30T09:21:13;18.46;81.44
47861;HTU21D;33620;52.340;5.984;2023-07-30T09:23:43;18.37;81.18
47861;HTU21D;33620;52.340;5.984;2023-07-30T09:26:09;18.35;81.01
47861;HTU21D;33620;52.340;5.984;2023-07-30T09:28:35;18.40;81.66
47861;HTU21D;33620;52.340;5.984;2023-07-30T09:31:01;18.53;82.00
47861;HTU21D;33620;52.340;5.984;2023-07-30T09:33:27;18.59;81.16
47861;HTU21D;33620;52.340;5.984;2023-07-30T09:35:52;18.64;81.01
47861;HTU21D;33620;52.340;5.984;2023-07-30T09:38:19;18.64;80.07
47861;HTU21D;33620;52.340;5.984;2023-07-30T09:40:45;18.68;80.30
47861;HTU21D;33620;52.340;5.984;2023-07-30T09:43:13;18.95;81.01
47861;HTU21D;33620;52.340;5.984;2023-07-30T09:45:38;19.25;80.22
47861;HTU21D;33620;52.340;5.984;2023-07-30T09:48:05;19.56;79.62
47861;HTU21D;33620;52.340;5.984;2023-07-30T09:50:31;19.97;79.44
47861;HTU21D;33620;52.340;5.984;2023-07-30T09:52:59;20.22;76.16
47861;HTU21D;33620;52.340;5.984;2023-07-30T09:55:26;20.18;75.60
47861;HTU21D;33620;52.340;5.984;2023-07-30T09:57:51;20.27;75.29
47861;HTU21D;33620;52.340;5.984;2023-07-30T10:00:17;20.12;74.35
47861;HTU21D;33620;52.340;5.984;2023-07-30T10:02:46;19.98;75.35
47861;HTU21D;33620;52.340;5.984;2023-07-30T10:05:17;19.84;74.99
47861;HTU21D;33620;52.340;5.984;2023-07-30T10:08:05;19.71;76.09
47861;HTU21D;33620;52.340;5.984;2023-07-30T10:10:33;19.67;78.43
47861;HTU21D;33620;52.340;5.984;2023-07-30T10:13:01;19.45;79.24
47861;HTU21D;33620;52.340;5.984;2023-07-30T10:15:28;19.42;79.01
47861;HTU21D;33620;52.340;5.984;2023-07-30T10:17:56;19.51;80.27
47861;HTU21D;33620;52.340;5.984;2023-07-30T10:20:27;19.50;80.43
47861;HTU21D;33620;52.340;5.984;2023-07-30T10:22:55;19.52;82.46
47861;HTU21D;33620;52.340;5.984;2023-07-30T10:25:48;19.46;81.40
47861;HTU21D;33620;52.340;5.984;2023-07-30T10:31:06;19.52;80.81
47861;HTU21D;33620;52.340;5.984;2023-07-30T10:33:49;19.51;79.36
47861;HTU21D;33620;52.340;5.984;2023-07-30T10:36:32;19.47;80.07
47861;HTU21D;33620;52.340;5.984;2023-07-30T10:39:11;19.53;78.94
47861;HTU21D;33620;52.340;5.984;2023-07-30T10:41:37;19.71;78.38
47861;HTU21D;33620;52.340;5.984;2023-07-30T10:44:02;19.70;75.18
47861;HTU21D;33620;52.340;5.984;2023-07-30T10:46:28;19.62;76.00
47861;HTU21D;33620;52.340;5.984;2023-07-30T10:48:54;19.70;76.20
47861;HTU21D;33620;52.340;5.984;2023-07-30T10:51:19;19.65;74.84
47861;HTU21D;33620;52.340;5.984;2023-07-30T10:53:46;19.67;72.99
47861;HTU21D;33620;52.340;5.984;2023-07-30T10:56:13;19.79;71.86
47861;HTU21D;33620;52.340;5.984;2023-07-30T10:58:39;19.77;69.99
47861;HTU21D;33620;52.340;5.984;2023-07-30T11:01:07;19.71;68.83
47861;HTU21D;33620;52.340;5.984;2023-07-30T11:03:33;19.68;69.57
47861;HTU21D;33620;52.340;5.984;2023-07-30T11:06:02;19.65;71.27
47861;HTU21D;33620;52.340;5.984;2023-07-30T11:08:37;19.54;73.67
47861;HTU21D;33620;52.340;5.984;2023-07-30T11:11:04;19.52;75.62
47861;HTU21D;33620;52.340;5.984;2023-07-30T11:13:35;19.55;75.82
47861;HTU21D;33620;52.340;5.984;2023-07-30T11:16:01;19.63;76.05
47861;HTU21D;33620;52.340;5.984;2023-07-30T11:18:30;19.91;77.28
47861;HTU21D;33620;52.340;5.984;2023-07-30T11:21:02;20.16;75.25
47861;HTU21D;33620;52.340;5.984;2023-07-30T11:23:28;20.34;73.61
47861;HTU21D;33620;52.340;5.984;2023-07-30T11:25:54;20.37;71.69
47861;HTU21D;33620;52.340;5.984;2023-07-30T11:28:38;20.25;69.02
47861;HTU21D;33620;52.340;5.984;2023-07-30T11:31:10;20.32;71.09
47861;HTU21D;33620;52.340;5.984;2023-07-30T11:33:38;20.26;69.78
47861;HTU21D;33620;52.340;5.984;2023-07-30T11:36:06;20.03;69.14
47861;HTU21D;33620;52.340;5.984;2023-07-30T11:38:32;19.95;67.38
47861;HTU21D;33620;52.340;5.984;2023-07-30T11:40:59;20.03;69.30
47861;HTU21D;33620;52.340;5.984;2023-07-30T11:43:24;20.11;68.36
47861;HTU21D;33620;52.340;5.984;2023-07-30T11:46:06;20.14;67.56
47861;HTU21D;33620;52.340;5.984;2023-07-30T11:48:32;20.39;66.65
47861;HTU21D;33620;52.340;5.984;2023-07-30T11:50:58;20.58;66.81
47861;HTU21D;33620;52.340;5.984;2023-07-30T11:53:43;20.81;66.14
47861;HTU21D;33620;52.340;5.984;2023-07-30T11:56:18;20.87;65.67
47861;HTU21D;33620;52.340;5.984;2023-07-30T11:58:45;20.57;62.88
47861;HTU21D;33620;52.340;5.984;2023-07-30T12:01:11;20.74;65.17
47861;HTU21D;33620;52.340;5.984;2023-07-30T12:03:37;21.01;65.13
47861;HTU21D;33620;52.340;5.984;2023-07-30T12:06:06;21.16;63.44
47861;HTU21D;33620;52.340;5.984;2023-07-30T12:08:34;21.10;62.13
47861;HTU21D;33620;52.340;5.984;2023-07-30T12:11:08;21.15;62.23
47861;HTU21D;33620;52.340;5.984;2023-07-30T12:13:34;21.29;62.46
47861;HTU21D;33620;52.340;5.984;2023-07-30T12:16:06;21.45;61.39
47861;HTU21D;33620;52.340;5.984;2023-07-30T12:18:32;21.60;61.90
47861;HTU21D;33620;52.340;5.984;2023-07-30T12:20:57;21.55;61.73
47861;HTU21D;33620;52.340;5.984;2023-07-30T12:23:23;21.65;63.20
47861;HTU21D;33620;52.340;5.984;2023-07-30T12:25:50;21.65;59.72
47861;HTU21D;33620;52.340;5.984;2023-07-30T12:28:15;21.53;60.96
47861;HTU21D;33620;52.340;5.984;2023-07-30T12:30:40;21.68;60.62
47861;HTU21D;33620;52.340;5.984;2023-07-30T12:33:06;21.78;61.38
47861;HTU21D;33620;52.340;5.984;2023-07-30T12:35:32;21.81;60.29
47861;HTU21D;33620;52.340;5.984;2023-07-30T12:37:59;21.70;59.66
47861;HTU21D;33620;52.340;5.984;2023-07-30T12:40:24;21.79;60.25
47861;HTU21D;33620;52.340;5.984;2023-07-30T12:42:50;21.81;60.15
47861;HTU21D;33620;52.340;5.984;2023-07-30T12:45:15;21.91;61.80
47861;HTU21D;33620;52.340;5.984;2023-07-30T12:47:41;21.80;60.80
47861;HTU21D;33620;52.340;5.984;2023-07-30T12:50:07;21.67;60.99
47861;HTU21D;33620;52.340;5.984;2023-07-30T12:52:34;21.43;57.80
47861;HTU21D;33620;52.340;5.984;2023-07-30T12:55:00;21.38;59.84
47861;HTU21D;33620;52.340;5.984;2023-07-30T12:57:25;21.25;59.19
47861;HTU21D;33620;52.340;5.984;2023-07-30T12:59:51;21.23;60.20
47861;HTU21D;33620;52.340;5.984;2023-07-30T13:02:16;21.29;60.02
47861;HTU21D;33620;52.340;5.984;2023-07-30T13:04:42;21.25;61.64
47861;HTU21D;33620;52.340;5.984;2023-07-30T13:07:07;21.13;59.61
47861;HTU21D;33620;52.340;5.984;2023-07-30T13:09:32;21.39;59.61
47861;HTU21D;33620;52.340;5.984;2023-07-30T13:11:58;21.46;58.18
47861;HTU21D;33620;52.340;5.984;2023-07-30T13:14:23;21.43;57.48
47861;HTU21D;33620;52.340;5.984;2023-07-30T13:16:49;21.33;58.10
47861;HTU21D;33620;52.340;5.984;2023-07-30T13:19:14;21.18;57.45
47861;HTU21D;33620;52.340;5.984;2023-07-30T13:21:40;21.10;58.55
47861;HTU21D;33620;52.340;5.984;2023-07-30T13:24:05;20.98;58.23
47861;HTU21D;33620;52.340;5.984;2023-07-30T13:26:30;21.06;58.23
47861;HTU21D;33620;52.340;5.984;2023-07-30T13:28:56;21.21;58.86
47861;HTU21D;33620;52.340;5.984;2023-07-30T13:31:21;21.32;57.55
47861;HTU21D;33620;52.340;5.984;2023-07-30T13:33:47;21.55;57.88
47861;HTU21D;33620;52.340;5.984;2023-07-30T13:36:13;21.78;57.20
47861;HTU21D;33620;52.340;5.984;2023-07-30T13:38:39;21.85;56.16
47861;HTU21D;33620;52.340;5.984;2023-07-30T13:41:06;21.91;54.62
47861;HTU21D;33620;52.340;5.984;2023-07-30T13:43:32;22.13;55.26
47861;HTU21D;33620;52.340;5.984;2023-07-30T13:45:57;22.39;54.26
47861;HTU21D;33620;52.340;5.984;2023-07-30T13:48:24;22.08;52.13
47861;HTU21D;33620;52.340;5.984;2023-07-30T13:50:50;22.03;52.20
47861;HTU21D;33620;52.340;5.984;2023-07-30T13:53:15;21.87;52.10
47861;HTU21D;33620;52.340;5.984;2023-07-30T13:55:41;21.75;52.91
47861;HTU21D;33620;52.340;5.984;2023-07-30T13:58:06;21.73;52.26
47861;HTU21D;33620;52.340;5.984;2023-07-30T14:00:31;21.51;53.76
47861;HTU21D;33620;52.340;5.984;2023-07-30T14:02:57;21.42;54.88
47861;HTU21D;33620;52.340;5.984;2023-07-30T14:05:22;21.44;55.32
47861;HTU21D;33620;52.340;5.984;2023-07-30T14:07:48;21.52;57.02
47861;HTU21D;33620;52.340;5.984;2023-07-30T14:10:15;21.43;54.91
47861;HTU21D;33620;52.340;5.984;2023-07-30T14:12:40;21.34;54.88
47861;HTU21D;33620;52.340;5.984;2023-07-30T14:15:06;21.25;56.76
47861;HTU21D;33620;52.340;5.984;2023-07-30T14:17:32;21.13;56.74
47861;HTU21D;33620;52.340;5.984;2023-07-30T14:19:57;21.07;57.15
47861;HTU21D;33620;52.340;5.984;2023-07-30T14:22:22;21.00;57.52
47861;HTU21D;33620;52.340;5.984;2023-07-30T14:24:48;20.86;57.64
47861;HTU21D;33620;52.340;5.984;2023-07-30T14:27:13;20.83;58.03
47861;HTU21D;33620;52.340;5.984;2023-07-30T14:29:40;20.74;58.25
47861;HTU21D;33620;52.340;5.984;2023-07-30T14:32:05;20.71;57.98
47861;HTU21D;33620;52.340;5.984;2023-07-30T14:34:31;20.71;57.55
47861;HTU21D;33620;52.340;5.984;2023-07-30T14:36:56;20.80;58.01
47861;HTU21D;33620;52.340;5.984;2023-07-30T14:39:22;21.17;58.76
47861;HTU21D;33620;52.340;5.984;2023-07-30T14:41:47;21.24;55.42
47861;HTU21D;33620;52.340;5.984;2023-07-30T14:44:13;21.28;56.32
47861;HTU21D;33620;52.340;5.984;2023-07-30T14:46:38;21.25;56.24
47861;HTU21D;33620;52.340;5.984;2023-07-30T14:49:03;21.33;57.35
47861;HTU21D;33620;52.340;5.984;2023-07-30T14:51:29;21.63;56.81
47861;HTU21D;33620;52.340;5.984;2023-07-30T14:53:54;21.46;55.62
47861;HTU21D;33620;52.340;5.984;2023-07-30T14:56:20;21.32;54.95
47861;HTU21D;33620;52.340;5.984;2023-07-30T14:58:46;21.15;55.18
47861;HTU21D;33620;52.340;5.984;2023-07-30T15:01:11;21.01;55.27
47861;HTU21D;33620;52.340;5.984;2023-07-30T15:03:36;21.14;54.93
47861;HTU21D;33620;52.340;5.984;2023-07-30T15:06:02;21.43;55.74
47861;HTU21D;33620;52.340;5.984;2023-07-30T15:08:28;21.44;54.49
47861;HTU21D;33620;52.340;5.984;2023-07-30T15:10:55;21.40;54.94
47861;HTU21D;33620;52.340;5.984;2023-07-30T15:13:20;21.35;55.34